sensor_id;sensor_type;location;lat;lon;timestamp;P1;durP1;ratioP1;P2;durP2;ratioP2
43216;SDS011;60511;42.686;23.300;2023-02-28T00:01:50;48.20;;;43.67;;
43216;SDS011;60511;42.686;23.300;2023-02-28T00:03:50;61.88;;;56.08;;
43216;SDS011;60511;42.686;23.300;2023-02-28T00:05:51;88.43;;;79.70;;
43216;SDS011;60511;42.686;23.300;2023-02-28T00:07:51;66.20;;;59.92;;
43216;SDS011;60511;42.686;23.300;2023-02-28T00:09:52;94.97;;;85.68;;
43216;SDS011;60511;42.686;23.300;2023-02-28T00:11:52;89.97;;;81.55;;
43216;SDS011;60511;42.686;23.300;2023-02-28T00:13:53;57.28;;;51.85;;
43216;SDS011;60511;42.686;23.300;2023-02-28T00:16:03;53.28;;;48.08;;
43216;SDS011;60511;42.686;23.300;2023-02-28T00:18:05;52.90;;;47.92;;
43216;SDS011;60511;42.686;23.300;2023-02-28T00:20:06;56.03;;;50.80;;
43216;SDS011;60511;42.686;23.300;2023-02-28T00:22:08;124.43;;;112.43;;
43216;SDS011;60511;42.686;23.300;2023-02-28T00:24:08;105.75;;;95.85;;
43216;SDS011;60511;42.686;23.300;2023-02-28T00:26:09;89.53;;;80.97;;
43216;SDS011;60511;42.686;23.300;2023-02-28T00:28:09;81.45;;;73.88;;
43216;SDS011;60511;42.686;23.300;2023-02-28T00:30:11;77.57;;;70.25;;
43216;SDS011;60511;42.686;23.300;2023-02-28T00:32:13;87.85;;;79.60;;
43216;SDS011;60511;42.686;23.300;2023-02-28T00:34:14;83.88;;;75.85;;
43216;SDS011;60511;42.686;23.300;2023-02-28T00:36:14;94.15;;;85.05;;
43216;SDS011;60511;42.686;23.300;2023-02-28T00:38:15;89.20;;;80.70;;
43216;SDS011;60511;42.686;23.300;2023-02-28T00:40:16;132.95;;;120.07;;
43216;SDS011;60511;42.686;23.300;2023-02-28T00:42:16;163.07;;;147.05;;
43216;SDS011;60511;42.686;23.300;2023-02-28T00:44:17;153.80;;;138.85;;
43216;SDS011;60511;42.686;23.300;2023-02-28T00:46:17;137.23;;;124.22;;
43216;SDS011;60511;42.686;23.300;2023-02-28T00:48:17;133.80;;;121.03;;
43216;SDS011;60511;42.686;23.300;2023-02-28T00:50:18;87.50;;;79.28;;
43216;SDS011;60511;42.686;23.300;2023-02-28T00:52:20;114.50;;;103.80;;
43216;SDS011;60511;42.686;23.300;2023-02-28T00:54:21;104.47;;;94.57;;
43216;SDS011;60511;42.686;23.300;2023-02-28T00:56:23;105.53;;;95.78;;
43216;SDS011;60511;42.686;23.300;2023-02-28T00:58:23;88.03;;;79.85;;
43216;SDS011;60511;42.686;23.300;2023-02-28T01:00:23;105.43;;;95.47;;
43216;SDS011;60511;42.686;23.300;2023-02-28T01:02:24;87.90;;;79.63;;
43216;SDS011;60511;42.686;23.300;2023-02-28T01:04:24;106.03;;;96.05;;
43216;SDS011;60511;42.686;23.300;2023-02-28T01:06:25;63.17;;;57.17;;
43216;SDS011;60511;42.686;23.300;2023-02-28T01:08:25;87.00;;;79.13;;
43216;SDS011;60511;42.686;23.300;2023-02-28T01:10:27;105.03;;;94.93;;
43216;SDS011;60511;42.686;23.300;2023-02-28T01:12:31;102.13;;;92.95;;
43216;SDS011;60511;42.686;23.300;2023-02-28T01:14:31;115.13;;;104.43;;
43216;SDS011;60511;42.686;23.300;2023-02-28T01:16:31;114.03;;;103.25;;
43216;SDS011;60511;42.686;23.300;2023-02-28T01:18:32;110.07;;;99.93;;
43216;SDS011;60511;42.686;23.300;2023-02-28T01:20:32;117.20;;;106.35;;
43216;SDS011;60511;42.686;23.300;2023-02-28T01:22:34;114.85;;;104.28;;
43216;SDS011;60511;42.686;23.300;2023-02-28T01:24:35;129.70;;;117.53;;
43216;SDS011;60511;42.686;23.300;2023-02-28T01:26:35;78.60;;;71.13;;
43216;SDS011;60511;42.686;23.300;2023-02-28T01:28:36;122.50;;;110.72;;
43216;SDS011;60511;42.686;23.300;2023-02-28T01:30:36;133.43;;;120.93;;
43216;SDS011;60511;42.686;23.300;2023-02-28T01:32:37;142.05;;;128.63;;
43216;SDS011;60511;42.686;23.300;2023-02-28T01:34:37;100.95;;;91.55;;
43216;SDS011;60511;42.686;23.300;2023-02-28T01:36:37;150.00;;;135.27;;
43216;SDS011;60511;42.686;23.300;2023-02-28T01:38:38;182.60;;;165.10;;
43216;SDS011;60511;42.686;23.300;2023-02-28T01:40:39;148.05;;;133.88;;
43216;SDS011;60511;42.686;23.300;2023-02-28T01:42:40;154.55;;;139.73;;
43216;SDS011;60511;42.686;23.300;2023-02-28T01:47:02;153.10;;;138.35;;
43216;SDS011;60511;42.686;23.300;2023-02-28T01:51:04;156.95;;;141.85;;
43216;SDS011;60511;42.686;23.300;2023-02-28T01:53:11;131.45;;;118.72;;
43216;SDS011;60511;42.686;23.300;2023-02-28T01:55:15;140.70;;;127.30;;
43216;SDS011;60511;42.686;23.300;2023-02-28T01:57:20;137.00;;;123.80;;
43216;SDS011;60511;42.686;23.300;2023-02-28T01:59:26;148.43;;;134.25;;
43216;SDS011;60511;42.686;23.300;2023-02-28T02:01:30;122.53;;;110.78;;
43216;SDS011;60511;42.686;23.300;2023-02-28T02:03:30;118.35;;;107.15;;
43216;SDS011;60511;42.686;23.300;2023-02-28T02:05:31;146.55;;;132.85;;
43216;SDS011;60511;42.686;23.300;2023-02-28T02:07:33;132.80;;;120.20;;
43216;SDS011;60511;42.686;23.300;2023-02-28T02:09:35;115.88;;;105.03;;
43216;SDS011;60511;42.686;23.300;2023-02-28T02:11:36;122.20;;;110.80;;
43216;SDS011;60511;42.686;23.300;2023-02-28T02:18:30;82.50;;;74.75;;
43216;SDS011;60511;42.686;23.300;2023-02-28T02:23:28;133.07;;;120.63;;
43216;SDS011;60511;42.686;23.300;2023-02-28T02:25:54;138.82;;;125.75;;
43216;SDS011;60511;42.686;23.300;2023-02-28T02:34:58;73.03;;;66.32;;
43216;SDS011;60511;42.686;23.300;2023-02-28T02:39:35;99.72;;;90.38;;
43216;SDS011;60511;42.686;23.300;2023-02-28T02:41:52;129.57;;;117.22;;
43216;SDS011;60511;42.686;23.300;2023-02-28T02:46:28;104.82;;;94.97;;
43216;SDS011;60511;42.686;23.300;2023-02-28T02:48:34;90.70;;;82.20;;
43216;SDS011;60511;42.686;23.300;2023-02-28T02:50:38;106.70;;;96.60;;
43216;SDS011;60511;42.686;23.300;2023-02-28T02:52:48;123.32;;;111.78;;
43216;SDS011;60511;42.686;23.300;2023-02-28T02:54:52;97.07;;;88.03;;
43216;SDS011;60511;42.686;23.300;2023-02-28T02:56:57;108.70;;;98.47;;
43216;SDS011;60511;42.686;23.300;2023-02-28T02:59:02;111.82;;;101.00;;
43216;SDS011;60511;42.686;23.300;2023-02-28T03:01:06;106.03;;;96.28;;
43216;SDS011;60511;42.686;23.300;2023-02-28T03:03:09;99.00;;;89.65;;
43216;SDS011;60511;42.686;23.300;2023-02-28T03:05:14;121.82;;;110.28;;
43216;SDS011;60511;42.686;23.300;2023-02-28T03:07:19;94.40;;;85.60;;
43216;SDS011;60511;42.686;23.300;2023-02-28T03:09:20;96.00;;;87.10;;
43216;SDS011;60511;42.686;23.300;2023-02-28T03:11:24;83.10;;;75.53;;
43216;SDS011;60511;42.686;23.300;2023-02-28T03:15:58;91.63;;;83.10;;
43216;SDS011;60511;42.686;23.300;2023-02-28T03:23:42;97.53;;;88.68;;
43216;SDS011;60511;42.686;23.300;2023-02-28T03:26:04;91.18;;;82.68;;
43216;SDS011;60511;42.686;23.300;2023-02-28T03:28:15;108.30;;;98.18;;
43216;SDS011;60511;42.686;23.300;2023-02-28T03:30:52;87.10;;;78.90;;
43216;SDS011;60511;42.686;23.300;2023-02-28T03:35:21;80.18;;;72.50;;
43216;SDS011;60511;42.686;23.300;2023-02-28T03:37:24;91.15;;;82.72;;
43216;SDS011;60511;42.686;23.300;2023-02-28T03:42:02;89.05;;;80.75;;
43216;SDS011;60511;42.686;23.300;2023-02-28T03:44:10;112.88;;;102.55;;
43216;SDS011;60511;42.686;23.300;2023-02-28T03:46:16;116.65;;;105.75;;
43216;SDS011;60511;42.686;23.300;2023-02-28T03:48:24;137.75;;;125.13;;
43216;SDS011;60511;42.686;23.300;2023-02-28T03:50:34;144.45;;;131.35;;
43216;SDS011;60511;42.686;23.300;2023-02-28T03:52:39;95.43;;;86.57;;
43216;SDS011;60511;42.686;23.300;2023-02-28T03:55:02;184.70;;;168.13;;
43216;SDS011;60511;42.686;23.300;2023-02-28T03:59:33;124.15;;;112.55;;
43216;SDS011;60511;42.686;23.300;2023-02-28T04:01:43;121.07;;;109.75;;
43216;SDS011;60511;42.686;23.300;2023-02-28T04:03:45;95.38;;;86.50;;
43216;SDS011;60511;42.686;23.300;2023-02-28T04:05:46;119.05;;;108.25;;
43216;SDS011;60511;42.686;23.300;2023-02-28T04:07:51;157.95;;;143.48;;
43216;SDS011;60511;42.686;23.300;2023-02-28T04:09:53;132.45;;;120.18;;
43216;SDS011;60511;42.686;23.300;2023-02-28T04:11:54;158.75;;;143.60;;
43216;SDS011;60511;42.686;23.300;2023-02-28T04:13:57;136.38;;;123.70;;
43216;SDS011;60511;42.686;23.300;2023-02-28T04:15:57;103.25;;;93.60;;
43216;SDS011;60511;42.686;23.300;2023-02-28T04:17:58;99.38;;;90.13;;
43216;SDS011;60511;42.686;23.300;2023-02-28T04:20:01;130.77;;;118.63;;
43216;SDS011;60511;42.686;23.300;2023-02-28T04:22:01;116.93;;;106.45;;
43216;SDS011;60511;42.686;23.300;2023-02-28T04:24:02;163.38;;;147.88;;
43216;SDS011;60511;42.686;23.300;2023-02-28T04:26:04;156.23;;;141.80;;
43216;SDS011;60511;42.686;23.300;2023-02-28T04:28:06;130.63;;;118.55;;
43216;SDS011;60511;42.686;23.300;2023-02-28T04:30:07;92.40;;;83.72;;
43216;SDS011;60511;42.686;23.300;2023-02-28T04:32:08;97.10;;;87.80;;
43216;SDS011;60511;42.686;23.300;2023-02-28T04:34:09;91.70;;;82.90;;
43216;SDS011;60511;42.686;23.300;2023-02-28T04:36:11;100.82;;;91.65;;
43216;SDS011;60511;42.686;23.300;2023-02-28T04:38:13;94.38;;;85.70;;
43216;SDS011;60511;42.686;23.300;2023-02-28T04:40:13;97.85;;;88.93;;
43216;SDS011;60511;42.686;23.300;2023-02-28T04:42:16;86.75;;;79.03;;
43216;SDS011;60511;42.686;23.300;2023-02-28T04:44:17;89.13;;;80.70;;
43216;SDS011;60511;42.686;23.300;2023-02-28T04:46:17;109.60;;;99.55;;
43216;SDS011;60511;42.686;23.300;2023-02-28T04:48:18;89.88;;;81.53;;
43216;SDS011;60511;42.686;23.300;2023-02-28T04:50:18;95.65;;;86.85;;
43216;SDS011;60511;42.686;23.300;2023-02-28T04:52:19;98.53;;;89.57;;
43216;SDS011;60511;42.686;23.300;2023-02-28T04:54:19;93.95;;;85.45;;
43216;SDS011;60511;42.686;23.300;2023-02-28T04:56:20;145.57;;;132.68;;
43216;SDS011;60511;42.686;23.300;2023-02-28T04:58:22;118.10;;;107.07;;
43216;SDS011;60511;42.686;23.300;2023-02-28T05:00:23;124.22;;;112.70;;
43216;SDS011;60511;42.686;23.300;2023-02-28T05:02:25;101.07;;;91.78;;
43216;SDS011;60511;42.686;23.300;2023-02-28T05:04:25;94.25;;;85.82;;
43216;SDS011;60511;42.686;23.300;2023-02-28T05:06:26;139.13;;;126.13;;
43216;SDS011;60511;42.686;23.300;2023-02-28T05:08:28;118.55;;;107.82;;
43216;SDS011;60511;42.686;23.300;2023-02-28T05:10:30;139.65;;;126.55;;
43216;SDS011;60511;42.686;23.300;2023-02-28T05:12:32;146.52;;;132.98;;
43216;SDS011;60511;42.686;23.300;2023-02-28T05:14:32;139.73;;;126.63;;
43216;SDS011;60511;42.686;23.300;2023-02-28T05:16:34;122.60;;;111.20;;
43216;SDS011;60511;42.686;23.300;2023-02-28T05:18:34;162.05;;;147.27;;
43216;SDS011;60511;42.686;23.300;2023-02-28T05:20:34;101.03;;;91.78;;
43216;SDS011;60511;42.686;23.300;2023-02-28T05:22:35;112.00;;;101.55;;
43216;SDS011;60511;42.686;23.300;2023-02-28T05:24:35;125.07;;;113.47;;
43216;SDS011;60511;42.686;23.300;2023-02-28T05:26:37;110.88;;;100.78;;
43216;SDS011;60511;42.686;23.300;2023-02-28T05:28:39;143.75;;;130.57;;
43216;SDS011;60511;42.686;23.300;2023-02-28T05:30:40;146.02;;;132.40;;
43216;SDS011;60511;42.686;23.300;2023-02-28T05:32:40;189.55;;;172.07;;
43216;SDS011;60511;42.686;23.300;2023-02-28T05:34:44;147.45;;;133.95;;
43216;SDS011;60511;42.686;23.300;2023-02-28T05:36:44;141.18;;;128.13;;
43216;SDS011;60511;42.686;23.300;2023-02-28T05:38:47;121.50;;;110.40;;
43216;SDS011;60511;42.686;23.300;2023-02-28T05:40:49;127.53;;;115.82;;
43216;SDS011;60511;42.686;23.300;2023-02-28T05:42:52;122.57;;;111.35;;
43216;SDS011;60511;42.686;23.300;2023-02-28T05:44:52;141.20;;;128.32;;
43216;SDS011;60511;42.686;23.300;2023-02-28T05:46:52;113.85;;;103.25;;
43216;SDS011;60511;42.686;23.300;2023-02-28T05:48:53;97.13;;;88.07;;
43216;SDS011;60511;42.686;23.300;2023-02-28T05:50:53;99.65;;;90.35;;
43216;SDS011;60511;42.686;23.300;2023-02-28T05:52:54;105.85;;;96.22;;
43216;SDS011;60511;42.686;23.300;2023-02-28T05:54:54;136.65;;;124.18;;
43216;SDS011;60511;42.686;23.300;2023-02-28T05:56:54;107.43;;;97.55;;
43216;SDS011;60511;42.686;23.300;2023-02-28T05:58:55;105.47;;;95.80;;
43216;SDS011;60511;42.686;23.300;2023-02-28T06:00:59;103.47;;;93.82;;
43216;SDS011;60511;42.686;23.300;2023-02-28T06:03:00;130.57;;;118.65;;
43216;SDS011;60511;42.686;23.300;2023-02-28T06:05:01;160.65;;;145.70;;
43216;SDS011;60511;42.686;23.300;2023-02-28T06:07:02;99.60;;;90.32;;
43216;SDS011;60511;42.686;23.300;2023-02-28T06:09:06;105.13;;;95.38;;
43216;SDS011;60511;42.686;23.300;2023-02-28T06:13:07;140.60;;;127.72;;
43216;SDS011;60511;42.686;23.300;2023-02-28T06:15:14;151.00;;;137.35;;
43216;SDS011;60511;42.686;23.300;2023-02-28T06:17:16;107.78;;;97.85;;
43216;SDS011;60511;42.686;23.300;2023-02-28T06:19:16;158.13;;;143.63;;
43216;SDS011;60511;42.686;23.300;2023-02-28T06:21:17;144.50;;;131.20;;
43216;SDS011;60511;42.686;23.300;2023-02-28T06:23:18;155.13;;;140.50;;
43216;SDS011;60511;42.686;23.300;2023-02-28T06:25:18;156.45;;;142.32;;
43216;SDS011;60511;42.686;23.300;2023-02-28T06:27:18;147.55;;;133.88;;
43216;SDS011;60511;42.686;23.300;2023-02-28T06:29:19;134.02;;;121.63;;
43216;SDS011;60511;42.686;23.300;2023-02-28T06:31:19;176.68;;;160.38;;
43216;SDS011;60511;42.686;23.300;2023-02-28T06:33:20;207.40;;;187.88;;
43216;SDS011;60511;42.686;23.300;2023-02-28T06:35:21;204.70;;;185.25;;
43216;SDS011;60511;42.686;23.300;2023-02-28T06:37:22;100.10;;;90.60;;
43216;SDS011;60511;42.686;23.300;2023-02-28T06:39:25;102.20;;;92.75;;
43216;SDS011;60511;42.686;23.300;2023-02-28T06:41:26;104.85;;;95.07;;
43216;SDS011;60511;42.686;23.300;2023-02-28T06:43:30;94.97;;;86.25;;
43216;SDS011;60511;42.686;23.300;2023-02-28T06:45:33;119.20;;;108.20;;
43216;SDS011;60511;42.686;23.300;2023-02-28T06:47:33;99.00;;;89.80;;
43216;SDS011;60511;42.686;23.300;2023-02-28T06:49:34;95.30;;;86.40;;
43216;SDS011;60511;42.686;23.300;2023-02-28T06:51:36;94.03;;;85.38;;
43216;SDS011;60511;42.686;23.300;2023-02-28T06:53:38;99.88;;;90.55;;
43216;SDS011;60511;42.686;23.300;2023-02-28T06:55:38;100.80;;;91.43;;
43216;SDS011;60511;42.686;23.300;2023-02-28T06:57:39;94.75;;;85.85;;
43216;SDS011;60511;42.686;23.300;2023-02-28T06:59:39;97.28;;;88.07;;
43216;SDS011;60511;42.686;23.300;2023-02-28T07:01:40;98.85;;;89.63;;
43216;SDS011;60511;42.686;23.300;2023-02-28T07:03:42;95.85;;;87.07;;
43216;SDS011;60511;42.686;23.300;2023-02-28T07:05:42;117.65;;;106.75;;
43216;SDS011;60511;42.686;23.300;2023-02-28T07:07:43;100.20;;;90.80;;
43216;SDS011;60511;42.686;23.300;2023-02-28T07:11:46;92.47;;;83.80;;
43216;SDS011;60511;42.686;23.300;2023-02-28T07:13:47;97.90;;;88.85;;
43216;SDS011;60511;42.686;23.300;2023-02-28T07:17:55;97.05;;;88.13;;
43216;SDS011;60511;42.686;23.300;2023-02-28T07:19:56;106.05;;;96.43;;
43216;SDS011;60511;42.686;23.300;2023-02-28T07:21:56;103.30;;;93.68;;
43216;SDS011;60511;42.686;23.300;2023-02-28T07:23:57;101.97;;;92.60;;
43216;SDS011;60511;42.686;23.300;2023-02-28T07:25:57;95.30;;;86.35;;
43216;SDS011;60511;42.686;23.300;2023-02-28T07:27:58;109.47;;;99.38;;
43216;SDS011;60511;42.686;23.300;2023-02-28T07:30:00;112.80;;;102.55;;
43216;SDS011;60511;42.686;23.300;2023-02-28T07:32:01;146.15;;;132.68;;
43216;SDS011;60511;42.686;23.300;2023-02-28T07:34:03;157.80;;;143.00;;
43216;SDS011;60511;42.686;23.300;2023-02-28T07:36:04;116.93;;;106.03;;
43216;SDS011;60511;42.686;23.300;2023-02-28T07:38:13;101.82;;;92.28;;
43216;SDS011;60511;42.686;23.300;2023-02-28T07:40:14;109.00;;;98.63;;
43216;SDS011;60511;42.686;23.300;2023-02-28T07:42:14;105.30;;;95.68;;
43216;SDS011;60511;42.686;23.300;2023-02-28T07:44:15;118.38;;;107.18;;
43216;SDS011;60511;42.686;23.300;2023-02-28T07:46:16;102.38;;;92.70;;
43216;SDS011;60511;42.686;23.300;2023-02-28T07:48:17;115.35;;;104.90;;
43216;SDS011;60511;42.686;23.300;2023-02-28T07:50:17;106.70;;;97.00;;
43216;SDS011;60511;42.686;23.300;2023-02-28T07:52:17;113.88;;;103.43;;
43216;SDS011;60511;42.686;23.300;2023-02-28T07:54:18;101.50;;;92.10;;
43216;SDS011;60511;42.686;23.300;2023-02-28T07:56:18;98.43;;;89.43;;
43216;SDS011;60511;42.686;23.300;2023-02-28T07:58:19;103.10;;;93.53;;
43216;SDS011;60511;42.686;23.300;2023-02-28T08:00:19;99.68;;;90.43;;
43216;SDS011;60511;42.686;23.300;2023-02-28T08:02:19;105.45;;;95.60;;
43216;SDS011;60511;42.686;23.300;2023-02-28T08:04:20;98.50;;;89.45;;
43216;SDS011;60511;42.686;23.300;2023-02-28T08:06:21;99.57;;;90.60;;
43216;SDS011;60511;42.686;23.300;2023-02-28T08:08:24;98.40;;;89.28;;
43216;SDS011;60511;42.686;23.300;2023-02-28T08:10:29;98.88;;;89.60;;
43216;SDS011;60511;42.686;23.300;2023-02-28T08:12:29;97.80;;;88.80;;
43216;SDS011;60511;42.686;23.300;2023-02-28T08:14:29;101.65;;;92.03;;
43216;SDS011;60511;42.686;23.300;2023-02-28T08:16:30;94.47;;;85.80;;
43216;SDS011;60511;42.686;23.300;2023-02-28T08:18:31;95.85;;;86.93;;
43216;SDS011;60511;42.686;23.300;2023-02-28T08:20:32;96.43;;;87.38;;
43216;SDS011;60511;42.686;23.300;2023-02-28T08:22:32;94.43;;;85.45;;
43216;SDS011;60511;42.686;23.300;2023-02-28T08:24:33;93.90;;;85.20;;
43216;SDS011;60511;42.686;23.300;2023-02-28T08:26:33;91.22;;;82.63;;
43216;SDS011;60511;42.686;23.300;2023-02-28T08:28:34;89.70;;;81.28;;
43216;SDS011;60511;42.686;23.300;2023-02-28T08:30:34;87.43;;;79.30;;
43216;SDS011;60511;42.686;23.300;2023-02-28T08:32:34;87.90;;;79.80;;
43216;SDS011;60511;42.686;23.300;2023-02-28T08:34:35;90.45;;;81.97;;
43216;SDS011;60511;42.686;23.300;2023-02-28T08:36:35;89.63;;;81.35;;
43216;SDS011;60511;42.686;23.300;2023-02-28T08:38:36;88.45;;;80.13;;
43216;SDS011;60511;42.686;23.300;2023-02-28T08:40:37;84.22;;;76.47;;
43216;SDS011;60511;42.686;23.300;2023-02-28T08:42:37;84.18;;;76.60;;
43216;SDS011;60511;42.686;23.300;2023-02-28T08:44:38;83.38;;;75.40;;
43216;SDS011;60511;42.686;23.300;2023-02-28T08:46:39;83.65;;;75.93;;
43216;SDS011;60511;42.686;23.300;2023-02-28T08:48:39;83.15;;;75.30;;
43216;SDS011;60511;42.686;23.300;2023-02-28T08:50:40;81.00;;;73.35;;
43216;SDS011;60511;42.686;23.300;2023-02-28T08:52:42;81.82;;;74.00;;
43216;SDS011;60511;42.686;23.300;2023-02-28T08:54:43;80.75;;;73.43;;
43216;SDS011;60511;42.686;23.300;2023-02-28T08:56:44;78.47;;;71.07;;
43216;SDS011;60511;42.686;23.300;2023-02-28T08:58:44;79.22;;;71.80;;
43216;SDS011;60511;42.686;23.300;2023-02-28T09:00:46;76.60;;;69.30;;
43216;SDS011;60511;42.686;23.300;2023-02-28T09:02:46;75.60;;;68.38;;
43216;SDS011;60511;42.686;23.300;2023-02-28T09:04:47;74.43;;;67.32;;
43216;SDS011;60511;42.686;23.300;2023-02-28T09:06:47;75.65;;;68.53;;
43216;SDS011;60511;42.686;23.300;2023-02-28T09:08:49;77.30;;;69.80;;
43216;SDS011;60511;42.686;23.300;2023-02-28T09:10:49;75.00;;;68.10;;
43216;SDS011;60511;42.686;23.300;2023-02-28T09:12:50;72.38;;;65.57;;
43216;SDS011;60511;42.686;23.300;2023-02-28T09:14:53;73.53;;;66.45;;
43216;SDS011;60511;42.686;23.300;2023-02-28T09:16:53;72.07;;;65.32;;
43216;SDS011;60511;42.686;23.300;2023-02-28T09:18:54;72.72;;;65.68;;
43216;SDS011;60511;42.686;23.300;2023-02-28T09:20:55;72.03;;;65.25;;
43216;SDS011;60511;42.686;23.300;2023-02-28T09:22:56;69.57;;;62.80;;
43216;SDS011;60511;42.686;23.300;2023-02-28T09:24:56;69.40;;;62.65;;
43216;SDS011;60511;42.686;23.300;2023-02-28T09:26:57;69.88;;;63.35;;
43216;SDS011;60511;42.686;23.300;2023-02-28T09:28:57;70.10;;;63.28;;
43216;SDS011;60511;42.686;23.300;2023-02-28T09:30:59;68.65;;;62.17;;
43216;SDS011;60511;42.686;23.300;2023-02-28T09:32:59;66.40;;;60.15;;
43216;SDS011;60511;42.686;23.300;2023-02-28T09:34:59;67.30;;;61.17;;
43216;SDS011;60511;42.686;23.300;2023-02-28T09:37:00;65.07;;;59.20;;
43216;SDS011;60511;42.686;23.300;2023-02-28T09:39:00;64.90;;;58.78;;
43216;SDS011;60511;42.686;23.300;2023-02-28T09:41:01;64.53;;;58.42;;
43216;SDS011;60511;42.686;23.300;2023-02-28T09:43:09;63.80;;;57.90;;
43216;SDS011;60511;42.686;23.300;2023-02-28T09:45:19;65.15;;;58.85;;
43216;SDS011;60511;42.686;23.300;2023-02-28T09:47:31;62.13;;;56.17;;
43216;SDS011;60511;42.686;23.300;2023-02-28T09:49:41;63.45;;;57.35;;
43216;SDS011;60511;42.686;23.300;2023-02-28T09:53:50;60.47;;;54.75;;
43216;SDS011;60511;42.686;23.300;2023-02-28T09:55:52;60.28;;;54.53;;
43216;SDS011;60511;42.686;23.300;2023-02-28T09:57:58;61.42;;;55.55;;
43216;SDS011;60511;42.686;23.300;2023-02-28T10:04:41;59.00;;;53.58;;
43216;SDS011;60511;42.686;23.300;2023-02-28T10:06:51;59.27;;;53.70;;
43216;SDS011;60511;42.686;23.300;2023-02-28T10:08:58;58.40;;;52.80;;
43216;SDS011;60511;42.686;23.300;2023-02-28T10:11:03;56.63;;;51.22;;
43216;SDS011;60511;42.686;23.300;2023-02-28T10:13:19;54.92;;;49.70;;
43216;SDS011;60511;42.686;23.300;2023-02-28T10:15:39;56.28;;;50.88;;
43216;SDS011;60511;42.686;23.300;2023-02-28T10:17:42;54.03;;;49.13;;
43216;SDS011;60511;42.686;23.300;2023-02-28T10:19:59;54.90;;;49.78;;
43216;SDS011;60511;42.686;23.300;2023-02-28T10:22:12;53.63;;;48.58;;
43216;SDS011;60511;42.686;23.300;2023-02-28T10:28:21;53.08;;;47.90;;
43216;SDS011;60511;42.686;23.300;2023-02-28T10:30:22;52.25;;;47.35;;
43216;SDS011;60511;42.686;23.300;2023-02-28T10:32:26;51.38;;;46.38;;
43216;SDS011;60511;42.686;23.300;2023-02-28T10:34:34;51.75;;;46.95;;
43216;SDS011;60511;42.686;23.300;2023-02-28T10:36:34;52.78;;;47.83;;
43216;SDS011;60511;42.686;23.300;2023-02-28T10:38:35;49.65;;;45.00;;
43216;SDS011;60511;42.686;23.300;2023-02-28T10:40:39;51.15;;;46.33;;
43216;SDS011;60511;42.686;23.300;2023-02-28T10:42:39;51.60;;;46.55;;
43216;SDS011;60511;42.686;23.300;2023-02-28T10:44:40;50.08;;;45.17;;
43216;SDS011;60511;42.686;23.300;2023-02-28T10:46:41;48.60;;;44.20;;
43216;SDS011;60511;42.686;23.300;2023-02-28T10:49:00;50.45;;;45.75;;
43216;SDS011;60511;42.686;23.300;2023-02-28T10:51:03;48.45;;;43.90;;
43216;SDS011;60511;42.686;23.300;2023-02-28T10:53:16;47.53;;;43.13;;
43216;SDS011;60511;42.686;23.300;2023-02-28T10:55:25;45.97;;;41.78;;
43216;SDS011;60511;42.686;23.300;2023-02-28T10:57:25;46.83;;;42.28;;
43216;SDS011;60511;42.686;23.300;2023-02-28T10:59:30;46.05;;;41.65;;
43216;SDS011;60511;42.686;23.300;2023-02-28T11:03:41;44.70;;;40.58;;
43216;SDS011;60511;42.686;23.300;2023-02-28T11:05:42;45.25;;;41.15;;
43216;SDS011;60511;42.686;23.300;2023-02-28T11:07:43;44.67;;;40.60;;
43216;SDS011;60511;42.686;23.300;2023-02-28T11:09:53;46.38;;;42.03;;
43216;SDS011;60511;42.686;23.300;2023-02-28T11:13:57;45.67;;;41.13;;
43216;SDS011;60511;42.686;23.300;2023-02-28T11:16:05;42.67;;;38.67;;
43216;SDS011;60511;42.686;23.300;2023-02-28T11:20:17;43.60;;;39.53;;
43216;SDS011;60511;42.686;23.300;2023-02-28T11:22:24;41.85;;;37.85;;
43216;SDS011;60511;42.686;23.300;2023-02-28T11:24:29;42.50;;;38.58;;
43216;SDS011;60511;42.686;23.300;2023-02-28T11:26:41;40.78;;;36.90;;
43216;SDS011;60511;42.686;23.300;2023-02-28T11:28:43;41.30;;;37.42;;
43216;SDS011;60511;42.686;23.300;2023-02-28T11:30:43;40.13;;;36.33;;
43216;SDS011;60511;42.686;23.300;2023-02-28T11:32:48;39.65;;;35.97;;
43216;SDS011;60511;42.686;23.300;2023-02-28T11:37:15;40.72;;;36.88;;
43216;SDS011;60511;42.686;23.300;2023-02-28T11:39:18;40.05;;;36.25;;
43216;SDS011;60511;42.686;23.300;2023-02-28T11:46:06;37.67;;;34.03;;
43216;SDS011;60511;42.686;23.300;2023-02-28T11:48:23;37.50;;;33.90;;
43216;SDS011;60511;42.686;23.300;2023-02-28T11:50:44;37.97;;;33.97;;
43216;SDS011;60511;42.686;23.300;2023-02-28T11:52:53;37.80;;;34.25;;
43216;SDS011;60511;42.686;23.300;2023-02-28T11:55:00;40.25;;;36.55;;
43216;SDS011;60511;42.686;23.300;2023-02-28T12:04:27;40.72;;;36.75;;
43216;SDS011;60511;42.686;23.300;2023-02-28T12:13:41;39.90;;;36.15;;
43216;SDS011;60511;42.686;23.300;2023-02-28T12:20:50;39.72;;;36.00;;
43216;SDS011;60511;42.686;23.300;2023-02-28T12:27:48;38.60;;;34.75;;
43216;SDS011;60511;42.686;23.300;2023-02-28T12:30:02;36.08;;;32.70;;
43216;SDS011;60511;42.686;23.300;2023-02-28T12:34:27;36.90;;;33.45;;
43216;SDS011;60511;42.686;23.300;2023-02-28T12:36:31;36.22;;;32.83;;
43216;SDS011;60511;42.686;23.300;2023-02-28T12:38:55;35.30;;;32.10;;
43216;SDS011;60511;42.686;23.300;2023-02-28T12:41:01;37.03;;;33.63;;
43216;SDS011;60511;42.686;23.300;2023-02-28T12:43:07;36.20;;;32.80;;
43216;SDS011;60511;42.686;23.300;2023-02-28T12:45:17;36.17;;;32.58;;
43216;SDS011;60511;42.686;23.300;2023-02-28T12:47:20;34.28;;;31.08;;
43216;SDS011;60511;42.686;23.300;2023-02-28T12:51:33;33.60;;;30.30;;
43216;SDS011;60511;42.686;23.300;2023-02-28T12:53:46;34.47;;;30.95;;
43216;SDS011;60511;42.686;23.300;2023-02-28T12:58:41;33.25;;;30.05;;
43216;SDS011;60511;42.686;23.300;2023-02-28T13:00:57;32.20;;;29.17;;
43216;SDS011;60511;42.686;23.300;2023-02-28T13:03:15;31.08;;;28.10;;
43216;SDS011;60511;42.686;23.300;2023-02-28T13:10:15;30.05;;;27.15;;
43216;SDS011;60511;42.686;23.300;2023-02-28T13:12:16;29.45;;;26.70;;
43216;SDS011;60511;42.686;23.300;2023-02-28T13:14:22;30.33;;;27.48;;
43216;SDS011;60511;42.686;23.300;2023-02-28T13:16:25;28.90;;;26.25;;
43216;SDS011;60511;42.686;23.300;2023-02-28T13:18:31;29.45;;;26.73;;
43216;SDS011;60511;42.686;23.300;2023-02-28T13:20:36;30.60;;;27.63;;
43216;SDS011;60511;42.686;23.300;2023-02-28T13:22:50;28.00;;;25.42;;
43216;SDS011;60511;42.686;23.300;2023-02-28T13:24:53;28.98;;;26.38;;
43216;SDS011;60511;42.686;23.300;2023-02-28T13:29:02;27.70;;;24.67;;
43216;SDS011;60511;42.686;23.300;2023-02-28T13:31:21;28.52;;;25.73;;
43216;SDS011;60511;42.686;23.300;2023-02-28T13:33:34;27.00;;;24.38;;